createdAt,value
2022-12-03T00:01:35.069Z,6.60
2022-12-03T00:04:06.257Z,6.60
2022-12-03T00:06:35.696Z,6.30
2022-12-03T00:09:04.976Z,5.80
2022-12-03T00:11:33.068Z,6.50
2022-12-03T00:14:01.141Z,6.20
2022-12-03T00:16:29.132Z,6.80
2022-12-03T00:18:57.119Z,6.50
2022-12-03T00:21:25.256Z,6.30
2022-12-03T00:23:53.177Z,6.30
2022-12-03T00:26:21.398Z,6.20
2022-12-03T00:28:49.779Z,5.90
2022-12-03T00:31:17.835Z,6.10
2022-12-03T00:33:45.850Z,6.00
2022-12-03T00:36:13.723Z,6.10
2022-12-03T00:38:42.063Z,6.10
2022-12-03T00:41:10.133Z,6.70
2022-12-03T00:43:38.000Z,6.10
2022-12-03T00:46:06.212Z,6.50
2022-12-03T00:48:34.353Z,5.90
2022-12-03T00:51:02.831Z,5.70
2022-12-03T00:53:31.113Z,6.30
2022-12-03T00:55:59.108Z,5.90
2022-12-03T00:58:26.974Z,6.20
2022-12-03T01:00:54.917Z,6.10
2022-12-03T01:03:23.022Z,5.50
2022-12-03T01:05:50.980Z,5.90
2022-12-03T01:08:18.924Z,5.70
2022-12-03T01:10:47.019Z,5.50
2022-12-03T01:13:14.967Z,5.80
2022-12-03T01:15:42.969Z,5.70
2022-12-03T01:18:11.314Z,6.00
2022-12-03T01:20:39.384Z,5.50
2022-12-03T01:23:07.349Z,5.40
2022-12-03T01:25:35.313Z,5.70
2022-12-03T01:28:03.501Z,5.40
2022-12-03T01:30:51.385Z,5.50
2022-12-03T01:33:19.710Z,6.10
2022-12-03T01:35:47.657Z,5.50
2022-12-03T01:38:15.618Z,5.80
2022-12-03T01:40:43.824Z,5.20
2022-12-03T01:43:11.812Z,5.50
2022-12-03T01:45:39.865Z,6.00
2022-12-03T01:48:13.816Z,5.60
2022-12-03T01:50:43.264Z,5.90
2022-12-03T01:53:16.819Z,5.60
2022-12-03T01:55:48.870Z,5.70
2022-12-03T01:58:25.132Z,5.80
2022-12-03T02:00:53.305Z,5.80
2022-12-03T02:03:26.694Z,5.60
2022-12-03T02:05:54.596Z,5.70
2022-12-03T02:08:35.748Z,5.40
2022-12-03T02:11:25.608Z,5.30
2022-12-03T02:14:01.666Z,5.60
2022-12-03T02:16:30.884Z,5.70
2022-12-03T02:18:59.154Z,5.20
2022-12-03T02:22:25.700Z,5.30
2022-12-03T02:25:00.209Z,5.60
2022-12-03T02:27:28.911Z,5.50
2022-12-03T02:29:56.918Z,5.20
2022-12-03T02:32:24.945Z,6.00
2022-12-03T02:34:53.738Z,5.50
2022-12-03T02:37:35.640Z,5.50
2022-12-03T02:40:11.336Z,5.60
2022-12-03T02:42:39.898Z,6.00
2022-12-03T02:45:28.553Z,5.60
2022-12-03T02:48:06.484Z,5.80
2022-12-03T02:50:41.851Z,6.00
2022-12-03T02:53:24.771Z,5.70
2022-12-03T02:55:56.137Z,6.20
2022-12-03T02:58:26.299Z,6.20
2022-12-03T03:00:56.110Z,5.90
2022-12-03T03:03:29.345Z,6.10
2022-12-03T03:05:59.354Z,6.00
2022-12-03T03:08:28.809Z,5.90
2022-12-03T03:11:00.290Z,5.70
2022-12-03T03:13:32.583Z,5.70
2022-12-03T03:16:04.692Z,5.70
2022-12-03T03:18:34.351Z,6.00
2022-12-03T03:21:03.879Z,6.10
2022-12-03T03:23:32.458Z,6.20
2022-12-03T03:26:07.691Z,6.10
2022-12-03T03:28:40.658Z,6.00
2022-12-03T03:31:12.813Z,5.90
2022-12-03T03:33:45.280Z,5.70
2022-12-03T03:36:15.345Z,6.00
2022-12-03T03:38:43.931Z,5.60
2022-12-03T03:41:15.836Z,6.00
2022-12-03T03:43:46.294Z,6.20
2022-12-03T03:46:16.540Z,5.70
2022-12-03T03:48:44.717Z,5.90
2022-12-03T03:51:13.612Z,6.30
2022-12-03T03:53:48.055Z,6.20
2022-12-03T03:56:18.947Z,5.90
2022-12-03T03:58:46.932Z,6.00
2022-12-03T04:01:15.591Z,5.60
2022-12-03T04:03:43.850Z,6.20
2022-12-03T04:06:12.385Z,6.70
2022-12-03T04:08:40.553Z,6.50
2022-12-03T04:11:27.367Z,6.00
2022-12-03T04:13:55.553Z,6.40
2022-12-03T04:16:23.542Z,6.30
2022-12-03T04:18:52.189Z,6.20
2022-12-03T04:21:42.910Z,7.00
2022-12-03T04:24:12.086Z,6.10
2022-12-03T04:26:58.660Z,6.40
2022-12-03T04:29:27.491Z,6.10
2022-12-03T04:32:14.505Z,6.20
2022-12-03T04:35:01.610Z,6.70
2022-12-03T04:37:29.677Z,6.70
2022-12-03T04:39:58.037Z,6.70
2022-12-03T04:42:25.998Z,6.60
2022-12-03T04:44:54.426Z,6.40
2022-12-03T04:47:22.986Z,6.40
2022-12-03T04:49:52.205Z,6.60
2022-12-03T04:52:21.606Z,6.60
2022-12-03T04:54:49.581Z,7.00
2022-12-03T04:57:17.480Z,6.60
2022-12-03T04:59:45.657Z,6.50
2022-12-03T05:02:13.896Z,6.90
2022-12-03T05:04:43.481Z,7.30
2022-12-03T05:07:11.698Z,6.80
2022-12-03T05:09:39.734Z,7.10
2022-12-03T05:12:08.033Z,6.70
2022-12-03T05:14:36.840Z,6.80
2022-12-03T05:17:05.193Z,6.70
2022-12-03T05:19:52.232Z,7.10
2022-12-03T05:22:20.097Z,6.40
2022-12-03T05:24:48.044Z,6.80
2022-12-03T05:27:21.744Z,7.10
2022-12-03T05:29:53.035Z,7.50
2022-12-03T05:32:21.166Z,7.00
2022-12-03T05:34:50.142Z,6.60
2022-12-03T05:37:18.514Z,7.00
2022-12-03T05:39:46.559Z,7.20
2022-12-03T05:42:33.421Z,7.10
2022-12-03T05:45:01.947Z,6.90
2022-12-03T05:47:30.032Z,7.00
2022-12-03T05:49:58.066Z,7.10
2022-12-03T05:52:26.125Z,6.70
2022-12-03T05:54:55.303Z,7.00
2022-12-03T05:57:23.592Z,6.70
2022-12-03T05:59:51.834Z,6.50
2022-12-03T06:02:20.588Z,6.90
2022-12-03T06:04:49.401Z,7.00
2022-12-03T06:07:17.453Z,6.40
2022-12-03T06:09:45.801Z,7.00
2022-12-03T06:12:13.938Z,7.20
2022-12-03T06:14:41.926Z,7.00
2022-12-03T06:17:09.874Z,6.80
2022-12-03T06:19:37.880Z,6.60
2022-12-03T06:22:05.986Z,7.10
2022-12-03T06:24:33.921Z,7.10
2022-12-03T06:27:02.095Z,7.30
2022-12-03T06:29:30.039Z,6.80
2022-12-03T06:31:58.030Z,6.80
2022-12-03T06:34:26.326Z,6.30
2022-12-03T06:36:54.685Z,7.10
2022-12-03T06:39:22.985Z,6.60
2022-12-03T06:41:51.345Z,7.20
2022-12-03T06:44:19.621Z,6.70
2022-12-03T06:46:48.103Z,6.20
2022-12-03T06:49:16.049Z,6.30
2022-12-03T06:51:45.356Z,6.10
2022-12-03T06:54:13.676Z,7.30
2022-12-03T06:56:45.435Z,6.50
2022-12-03T06:59:14.322Z,6.40
2022-12-03T07:01:42.994Z,6.50
2022-12-03T07:04:11.286Z,6.50
2022-12-03T07:06:39.842Z,6.60
2022-12-03T07:09:07.880Z,6.70
2022-12-03T07:11:40.753Z,6.50
2022-12-03T07:14:11.473Z,6.80
2022-12-03T07:16:40.196Z,6.30
2022-12-03T07:19:08.404Z,6.00
2022-12-03T07:21:36.477Z,6.80
2022-12-03T07:24:05.828Z,6.00
2022-12-03T07:26:33.778Z,6.50
2022-12-03T07:29:01.915Z,6.50
2022-12-03T07:31:30.457Z,6.10
2022-12-03T07:33:58.650Z,6.30
2022-12-03T07:36:26.891Z,6.70
2022-12-03T07:38:55.028Z,6.30
2022-12-03T07:41:23.362Z,6.30
2022-12-03T07:43:51.355Z,6.90
2022-12-03T07:46:19.394Z,6.20
2022-12-03T07:48:47.510Z,6.00
2022-12-03T07:51:15.753Z,6.70
2022-12-03T07:53:43.966Z,6.40
2022-12-03T07:56:12.237Z,6.10
2022-12-03T07:58:40.353Z,6.20
2022-12-03T08:01:08.468Z,6.60
2022-12-03T08:03:37.067Z,5.70
2022-12-03T08:06:05.413Z,6.00
2022-12-03T08:08:33.423Z,6.20
2022-12-03T08:11:02.644Z,6.40
2022-12-03T08:13:30.996Z,6.40
2022-12-03T08:16:09.282Z,6.30
2022-12-03T08:18:37.480Z,5.90
2022-12-03T08:21:10.368Z,5.60
2022-12-03T08:23:38.539Z,6.30
2022-12-03T08:26:19.742Z,6.00
2022-12-03T08:28:48.200Z,6.00
2022-12-03T08:31:21.163Z,7.00
2022-12-03T08:33:53.199Z,6.60
2022-12-03T08:36:30.234Z,6.00
2022-12-03T08:39:16.831Z,6.70
2022-12-03T08:42:05.176Z,6.60
2022-12-03T08:44:41.068Z,5.90
2022-12-03T08:47:09.112Z,6.00
2022-12-03T08:49:37.912Z,7.20
2022-12-03T08:52:34.846Z,7.10
2022-12-03T08:55:34.256Z,5.80
2022-12-03T08:58:18.715Z,6.30
2022-12-03T09:00:47.088Z,6.40
2022-12-03T09:03:20.026Z,6.60
2022-12-03T09:05:48.393Z,6.60
2022-12-03T09:08:16.521Z,6.90
2022-12-03T09:10:44.562Z,6.80
2022-12-03T09:13:12.674Z,7.00
2022-12-03T09:15:40.999Z,7.20
2022-12-03T09:18:10.047Z,6.70
2022-12-03T09:20:38.139Z,7.70
2022-12-03T09:23:07.058Z,8.00
2022-12-03T09:25:35.135Z,7.50
2022-12-03T09:28:03.387Z,7.60
2022-12-03T09:30:31.841Z,8.10
2022-12-03T09:33:01.483Z,7.60
2022-12-03T09:35:29.352Z,7.80
2022-12-03T09:37:57.683Z,7.80
2022-12-03T09:40:26.106Z,7.90
2022-12-03T09:42:58.713Z,8.30
2022-12-03T09:45:27.660Z,7.50
2022-12-03T09:47:57.495Z,7.10
2022-12-03T09:50:27.868Z,7.70
2022-12-03T09:53:00.564Z,7.20
2022-12-03T09:55:30.622Z,7.70
2022-12-03T09:57:59.164Z,7.50
2022-12-03T10:00:31.037Z,8.50
2022-12-03T10:03:04.637Z,7.60
2022-12-03T10:05:34.783Z,6.60
2022-12-03T10:08:13.502Z,7.50
2022-12-03T10:10:42.769Z,7.70
2022-12-03T10:13:26.617Z,7.30
2022-12-03T10:15:59.330Z,7.60
2022-12-03T10:18:38.311Z,8.00
2022-12-03T10:21:36.922Z,7.70
2022-12-03T10:26:47.890Z,7.30
2022-12-03T10:29:34.098Z,7.60
2022-12-03T10:32:13.443Z,7.20
2022-12-03T10:34:42.630Z,8.30
2022-12-03T10:37:21.479Z,7.00
2022-12-03T10:40:12.051Z,8.00
2022-12-03T10:42:41.937Z,7.70
2022-12-03T10:45:23.913Z,7.60
2022-12-03T10:48:15.406Z,7.90
2022-12-03T10:51:21.764Z,7.60
2022-12-03T10:53:51.534Z,7.50
2022-12-03T10:56:26.877Z,7.80
2022-12-03T10:58:55.492Z,7.70
2022-12-03T11:01:26.815Z,7.80
2022-12-03T11:04:04.979Z,7.30
2022-12-03T11:06:33.261Z,7.40
2022-12-03T11:09:08.316Z,8.00
2022-12-03T11:11:37.028Z,7.00
2022-12-03T11:14:06.256Z,7.80
2022-12-03T11:16:40.260Z,7.00
2022-12-03T11:19:41.258Z,7.30
2022-12-03T11:22:12.057Z,7.40
2022-12-03T11:24:40.925Z,7.60
2022-12-03T11:27:11.932Z,8.10
2022-12-03T11:29:56.430Z,7.60
2022-12-03T11:32:39.859Z,7.60
2022-12-03T11:35:37.906Z,8.20
2022-12-03T11:38:53.305Z,7.00
2022-12-03T11:41:27.158Z,8.80
2022-12-03T11:43:57.956Z,8.00
2022-12-03T11:46:45.031Z,7.30
2022-12-03T11:49:47.449Z,8.00
2022-12-03T11:52:40.201Z,7.70
2022-12-03T11:55:28.456Z,7.10
2022-12-03T11:58:29.115Z,7.00
2022-12-03T12:01:00.530Z,7.70
2022-12-03T12:03:49.581Z,7.70
2022-12-03T12:06:19.948Z,8.60
2022-12-03T12:08:51.397Z,8.90
2022-12-03T12:11:37.368Z,7.30
2022-12-03T12:14:08.849Z,7.40
2022-12-03T12:16:50.548Z,7.90
2022-12-03T12:19:41.458Z,8.20
2022-12-03T12:22:20.648Z,7.90
2022-12-03T12:24:54.943Z,8.30
2022-12-03T12:27:51.300Z,8.10
2022-12-03T12:30:22.237Z,7.70
2022-12-03T12:33:16.145Z,8.00
2022-12-03T12:35:47.751Z,8.10
2022-12-03T12:38:24.550Z,7.20
2022-12-03T12:40:55.612Z,7.00
2022-12-03T12:43:28.855Z,7.20
2022-12-03T12:46:45.512Z,7.30
2022-12-03T12:49:00.645Z,7.30
2022-12-03T12:51:30.579Z,6.90
2022-12-03T12:53:59.473Z,7.60
2022-12-03T12:56:32.975Z,7.20
2022-12-03T12:59:15.804Z,6.90
2022-12-03T13:01:47.955Z,7.10
2022-12-03T13:04:22.398Z,6.50
2022-12-03T13:06:55.292Z,6.90
2022-12-03T13:09:27.592Z,6.40
2022-12-03T13:12:00.636Z,7.10
2022-12-03T13:14:38.038Z,7.10
2022-12-03T13:17:24.779Z,7.10
2022-12-03T13:20:07.706Z,7.20
2022-12-03T13:22:38.270Z,7.00
2022-12-03T13:26:01.732Z,6.80
2022-12-03T13:28:34.018Z,6.60
2022-12-03T13:31:43.704Z,6.20
2022-12-03T13:34:21.148Z,6.60
2022-12-03T13:36:56.972Z,6.60
2022-12-03T13:39:38.899Z,6.40
2022-12-03T13:42:41.513Z,7.10
2022-12-03T13:45:15.728Z,6.60
2022-12-03T13:47:47.342Z,7.10
2022-12-03T13:50:34.644Z,6.80
2022-12-03T13:53:36.841Z,7.20
2022-12-03T13:56:29.026Z,7.20
2022-12-03T13:59:00.265Z,7.30
2022-12-03T14:01:29.211Z,7.60
2022-12-03T14:03:57.600Z,6.80
2022-12-03T14:06:25.673Z,7.30
2022-12-03T14:08:53.739Z,7.30
2022-12-03T14:11:40.553Z,7.70
2022-12-03T14:14:09.252Z,8.10
2022-12-03T14:16:37.510Z,8.40
2022-12-03T14:19:06.718Z,8.20
2022-12-03T14:21:34.685Z,7.90
2022-12-03T14:24:02.712Z,8.00
2022-12-03T14:26:30.624Z,7.20
2022-12-03T14:28:58.617Z,7.70
2022-12-03T14:31:26.640Z,7.10
2022-12-03T14:33:54.659Z,7.90
2022-12-03T14:36:23.125Z,7.40
2022-12-03T14:38:51.272Z,7.30
2022-12-03T14:41:38.001Z,7.20
2022-12-03T14:44:05.952Z,7.20
2022-12-03T14:46:34.151Z,7.00
2022-12-03T14:49:02.118Z,6.40
2022-12-03T14:51:31.167Z,7.10
2022-12-03T14:53:59.075Z,7.20
2022-12-03T14:56:27.445Z,7.20
2022-12-03T14:58:56.755Z,7.10
2022-12-03T15:01:24.934Z,7.90
2022-12-03T15:03:53.413Z,7.80
2022-12-03T15:06:21.525Z,7.70
2022-12-03T15:08:50.198Z,8.10
2022-12-03T15:11:19.089Z,8.10
2022-12-03T15:13:47.439Z,7.90
2022-12-03T15:16:15.499Z,7.80
2022-12-03T15:18:43.749Z,8.30
2022-12-03T15:21:11.738Z,7.80
2022-12-03T15:23:39.714Z,8.50
2022-12-03T15:26:08.825Z,7.70
2022-12-03T15:28:36.997Z,8.50
2022-12-03T15:31:05.230Z,8.00
2022-12-03T15:33:33.451Z,8.20
2022-12-03T15:36:01.736Z,8.40
2022-12-03T15:38:30.270Z,8.00
2022-12-03T15:40:58.806Z,7.80
2022-12-03T15:43:27.082Z,7.90
2022-12-03T15:45:55.855Z,8.10
2022-12-03T15:48:23.841Z,8.00
2022-12-03T15:50:53.625Z,8.50
2022-12-03T15:53:22.577Z,7.80
2022-12-03T15:55:50.563Z,8.20
2022-12-03T15:58:18.674Z,8.00
2022-12-03T16:00:46.701Z,7.90
2022-12-03T16:03:14.798Z,8.00
2022-12-03T16:05:42.888Z,8.40
2022-12-03T16:08:10.891Z,8.20
2022-12-03T16:10:39.309Z,7.40
2022-12-03T16:13:07.383Z,8.10
2022-12-03T16:15:36.972Z,7.90
2022-12-03T16:18:06.391Z,7.90
2022-12-03T16:20:35.313Z,7.90
2022-12-03T16:23:03.485Z,7.80
2022-12-03T16:25:31.405Z,7.30
2022-12-03T16:27:59.751Z,7.80
2022-12-03T16:30:28.248Z,7.60
2022-12-03T16:32:56.286Z,8.00
2022-12-03T16:35:24.586Z,8.20
2022-12-03T16:37:52.634Z,8.30
2022-12-03T16:40:20.734Z,8.20
2022-12-03T16:42:48.782Z,8.30
2022-12-03T16:45:33.555Z,7.60
2022-12-03T16:48:02.741Z,8.60
2022-12-03T16:50:30.823Z,8.30
2022-12-03T16:52:59.108Z,8.30
2022-12-03T16:55:28.086Z,7.90
2022-12-03T16:57:56.162Z,8.20
2022-12-03T17:00:26.074Z,8.10
2022-12-03T17:02:54.315Z,7.90
2022-12-03T17:05:22.436Z,8.40
2022-12-03T17:07:50.602Z,8.20
2022-12-03T17:10:18.749Z,8.30
2022-12-03T17:15:36.023Z,8.10
2022-12-03T17:18:04.382Z,8.10
2022-12-03T17:20:34.121Z,8.20
2022-12-03T17:23:02.827Z,8.10
2022-12-03T17:25:31.183Z,8.10
2022-12-03T17:27:59.434Z,8.10
2022-12-03T17:30:27.938Z,7.60
2022-12-03T17:32:55.888Z,8.00
2022-12-03T17:35:24.424Z,8.40
2022-12-03T17:37:52.723Z,7.70
2022-12-03T17:40:20.919Z,8.10
2022-12-03T17:42:48.891Z,8.10
2022-12-03T17:45:17.270Z,8.10
2022-12-03T17:47:45.276Z,8.30
2022-12-03T17:50:13.194Z,8.00
2022-12-03T17:52:41.279Z,8.10
2022-12-03T17:55:12.893Z,7.90
2022-12-03T17:57:44.795Z,8.70
2022-12-03T18:00:13.943Z,8.30
2022-12-03T18:02:43.373Z,8.50
2022-12-03T18:05:11.598Z,8.20
2022-12-03T18:07:40.640Z,8.10
2022-12-03T18:10:09.120Z,8.00
2022-12-03T18:12:38.029Z,8.40
2022-12-03T18:15:07.968Z,8.60
2022-12-03T18:17:36.453Z,7.70
2022-12-03T18:20:06.605Z,8.60
2022-12-03T18:22:35.854Z,8.30
2022-12-03T18:25:05.990Z,8.50
2022-12-03T18:27:35.203Z,8.10
2022-12-03T18:30:04.429Z,8.40
2022-12-03T18:32:32.866Z,8.80
2022-12-03T18:35:01.129Z,8.10
2022-12-03T18:37:32.088Z,8.30
2022-12-03T18:40:12.116Z,7.80
2022-12-03T18:42:41.651Z,8.40
2022-12-03T18:45:13.721Z,8.20
2022-12-03T18:47:43.147Z,7.90
2022-12-03T18:50:14.275Z,7.90
2022-12-03T18:52:43.487Z,8.80
2022-12-03T18:55:19.410Z,8.30
2022-12-03T18:57:47.697Z,8.00
2022-12-03T19:00:16.888Z,8.20
2022-12-03T19:05:36.135Z,8.00
2022-12-03T19:08:14.134Z,8.20
2022-12-03T19:10:43.921Z,8.10
2022-12-03T19:13:12.666Z,8.30
2022-12-03T19:15:41.348Z,8.30
2022-12-03T19:18:09.556Z,8.30
2022-12-03T19:20:41.482Z,9.50
2022-12-03T19:23:10.358Z,9.50
2022-12-03T19:25:38.462Z,10.00
2022-12-03T19:28:07.604Z,10.30
2022-12-03T19:30:36.235Z,10.30
2022-12-03T19:33:04.711Z,11.00
2022-12-03T19:35:33.706Z,10.70
2022-12-03T19:38:01.873Z,11.40
2022-12-03T19:40:32.231Z,10.90
2022-12-03T19:43:01.300Z,11.10
2022-12-03T19:45:29.832Z,12.10
2022-12-03T19:47:58.056Z,11.90
2022-12-03T19:50:26.140Z,11.00
2022-12-03T19:52:54.577Z,11.20
2022-12-03T19:55:22.857Z,11.30
2022-12-03T19:57:50.855Z,10.90
2022-12-03T20:00:19.488Z,11.00
2022-12-03T20:02:50.005Z,10.60
2022-12-03T20:05:18.247Z,11.10
2022-12-03T20:07:46.433Z,10.70
2022-12-03T20:10:16.812Z,11.10
2022-12-03T20:12:45.944Z,11.70
2022-12-03T20:15:14.538Z,11.90
2022-12-03T20:17:42.530Z,11.60
2022-12-03T20:20:11.832Z,11.40
2022-12-03T20:22:39.981Z,11.70
2022-12-03T20:25:10.295Z,13.00
2022-12-03T20:27:39.702Z,14.70
2022-12-03T20:30:08.907Z,17.60
2022-12-03T20:32:40.675Z,20.10
2022-12-03T20:35:13.420Z,22.00
2022-12-03T20:37:41.573Z,21.60
2022-12-03T20:40:11.117Z,20.60
2022-12-03T20:42:39.192Z,19.90
2022-12-03T20:45:08.363Z,20.30
2022-12-03T20:47:36.646Z,19.60
2022-12-03T20:50:05.964Z,18.50
2022-12-03T20:52:34.041Z,17.70
2022-12-03T20:55:02.271Z,17.80
2022-12-03T20:57:30.696Z,18.10
2022-12-03T20:59:58.869Z,17.40
2022-12-03T21:02:27.381Z,18.40
2022-12-03T21:04:55.636Z,18.20
2022-12-03T21:07:23.696Z,17.30
2022-12-03T21:09:52.084Z,17.60
2022-12-03T21:12:20.266Z,17.20
2022-12-03T21:14:48.338Z,18.50
2022-12-03T21:17:16.781Z,17.30
2022-12-03T21:19:45.600Z,15.60
2022-12-03T21:22:13.664Z,15.50
2022-12-03T21:24:43.069Z,16.20
2022-12-03T21:27:11.345Z,15.70
2022-12-03T21:29:39.451Z,16.40
2022-12-03T21:32:07.742Z,16.50
2022-12-03T21:34:36.637Z,16.60
2022-12-03T21:37:04.890Z,15.60
2022-12-03T21:39:33.241Z,15.30
2022-12-03T21:42:18.850Z,15.30
2022-12-03T21:44:49.956Z,16.80
2022-12-03T21:47:18.391Z,15.00
2022-12-03T21:49:46.809Z,15.90
2022-12-03T21:52:14.896Z,15.40
2022-12-03T21:54:43.072Z,16.00
2022-12-03T21:57:11.300Z,15.60
2022-12-03T21:59:40.526Z,15.70
2022-12-03T22:02:11.324Z,14.80
2022-12-03T22:04:40.285Z,15.50
2022-12-03T22:07:08.370Z,16.20
2022-12-03T22:09:36.550Z,15.50
2022-12-03T22:12:05.723Z,15.20
2022-12-03T22:14:33.661Z,15.10
2022-12-03T22:17:01.765Z,15.70
2022-12-03T22:19:30.036Z,14.90
2022-12-03T22:21:58.210Z,15.00
2022-12-03T22:24:26.496Z,14.70
2022-12-03T22:26:55.093Z,15.10
2022-12-03T22:29:23.401Z,14.50
2022-12-03T22:31:51.930Z,15.40
2022-12-03T22:34:20.057Z,15.10
2022-12-03T22:36:48.087Z,15.10
2022-12-03T22:39:16.454Z,14.60
2022-12-03T22:41:44.523Z,14.50
2022-12-03T22:44:13.071Z,14.40
2022-12-03T22:46:41.472Z,14.40
2022-12-03T22:49:11.774Z,14.50
2022-12-03T22:51:39.782Z,14.60
2022-12-03T22:54:07.917Z,14.20
2022-12-03T22:56:36.245Z,14.10
2022-12-03T22:59:05.604Z,14.70
2022-12-03T23:01:38.232Z,14.40
2022-12-03T23:04:08.834Z,14.20
2022-12-03T23:06:38.072Z,14.50
2022-12-03T23:09:07.834Z,14.30
2022-12-03T23:11:36.662Z,13.90
2022-12-03T23:14:05.140Z,13.70
2022-12-03T23:16:34.000Z,13.90
2022-12-03T23:19:04.178Z,13.40
2022-12-03T23:21:35.354Z,12.90
2022-12-03T23:24:06.535Z,13.10
2022-12-03T23:26:37.924Z,13.20
2022-12-03T23:29:08.715Z,12.60
2022-12-03T23:31:37.381Z,12.40
2022-12-03T23:34:06.046Z,12.60
2022-12-03T23:36:34.576Z,13.00
2022-12-03T23:39:03.872Z,12.10
2022-12-03T23:41:31.953Z,11.90
2022-12-03T23:43:59.940Z,11.50
2022-12-03T23:46:28.625Z,11.80
2022-12-03T23:48:59.674Z,11.50
2022-12-03T23:51:27.714Z,11.20
2022-12-03T23:53:56.803Z,11.70
2022-12-03T23:56:30.723Z,10.50
2022-12-03T23:58:59.413Z,11.70
